EGPD - Aberdeen / Dyce
Distance from station: E 5mi, 14km
Updated: 10/22/2017 9:20pm
Clear
Clear
 Wind from calm
Wind: Calm
Temperature: 41°F , 5°C
Dew Point: 39°F , 4°C
Humidity: 93%
Barometer: 29.85 inHg , 1011 hPa
Clouds: Clear
Visibility: 6 miles , 10 km
2017/10/23 04:20 EGPD 230420Z AUTO 00000KT 9999 NCD 05/04 Q1011